Time;durP1;ratioP1;P1;durP2;ratioP2;P2;SDS_P1;SDS_P2;PMS_P1;PMS_P2;Temp;Humidity;BMP_temperature;BMP_pressure;BME280_temperature;BME280_humidity;BME280_pressure;Samples;Min_cycle;Max_cycle;Signal;HPM_P1;HPM_P2
2021/12/24 00:00:51;;;;;;;7.67;3.77;;;;;;;5.53;100.00;95511.25;5042919;28;20033;-76
2021/12/24 00:03:17;;;;;;;6.53;3.50;;;;;;;5.45;100.00;95506.78;5034524;28;20066;-77
2021/12/24 00:05:43;;;;;;;7.90;3.60;;;;;;;5.52;100.00;95501.81;5039741;28;20048;-76
2021/12/24 00:08:10;;;;;;;8.53;4.13;;;;;;;5.51;100.00;95502.78;5026349;28;20379;-77
2021/12/24 00:10:37;;;;;;;9.10;3.67;;;;;;;5.52;100.00;95491.38;5043554;28;20047;-77
2021/12/24 00:13:12;;;;;;;7.70;4.20;;;;;;;5.55;100.00;95491.09;5037483;28;20045;-76
2021/12/24 00:15:56;;;;;;;8.03;4.03;;;;;;;5.57;100.00;95483.94;5029778;28;20119;-76
2021/12/24 00:18:48;;;;;;;6.23;3.13;;;;;;;5.65;100.00;95486.63;5028779;28;20103;-76
2021/12/24 00:35:12;;;;;;;8.67;3.20;;;;;;;6.00;100.00;95488.47;5033600;28;20037;-77
2021/12/24 00:37:45;;;;;;;8.97;4.17;;;;;;;6.04;100.00;95479.38;5042147;28;20034;-77
2021/12/24 00:42:44;;;;;;;5.60;2.80;;;;;;;6.09;100.00;95478.91;5046429;28;20434;-76
2021/12/24 00:45:12;;;;;;;8.93;3.20;;;;;;;6.06;100.00;95474.00;5045461;28;20805;-76
2021/12/24 00:47:37;;;;;;;6.37;3.03;;;;;;;6.14;100.00;95477.50;5041302;28;20119;-76
2021/12/24 00:50:08;;;;;;;7.57;3.40;;;;;;;6.07;100.00;95473.88;5051510;28;20111;-76
2021/12/24 00:52:46;;;;;;;6.37;3.17;;;;;;;6.14;100.00;95474.91;5045932;28;20036;-76
2021/12/24 00:55:13;;;;;;;6.87;2.97;;;;;;;6.20;100.00;95476.06;5031735;28;20111;-76
2021/12/24 00:57:44;;;;;;;7.23;3.23;;;;;;;6.19;100.00;95474.44;5043856;28;20149;-75
2021/12/24 01:00:22;;;;;;;8.27;3.30;;;;;;;6.20;100.00;95460.41;5028949;28;20033;-75
2021/12/24 01:02:49;;;;;;;6.53;3.20;;;;;;;6.10;100.00;95464.88;5036571;28;20032;-75
2021/12/24 01:05:18;;;;;;;7.60;3.43;;;;;;;6.04;100.00;95455.06;5054739;28;20043;-75
2021/12/24 01:07:49;;;;;;;8.03;3.57;;;;;;;6.11;100.00;95466.56;5045408;28;20077;-78
2021/12/24 01:10:18;;;;;;;6.97;3.27;;;;;;;6.29;100.00;95451.66;5056153;28;20012;-76
2021/12/24 01:12:45;;;;;;;6.47;3.77;;;;;;;6.29;100.00;95449.06;5063737;28;20037;-77
2021/12/24 01:15:13;;;;;;;5.87;3.20;;;;;;;6.21;100.00;95442.97;5049844;28;20039;-77
2021/12/24 01:17:45;;;;;;;8.90;3.83;;;;;;;6.24;100.00;95440.88;5050008;28;20032;-75
2021/12/24 01:20:30;;;;;;;7.97;3.23;;;;;;;6.14;100.00;95450.59;5055893;28;20063;-75
2021/12/24 01:23:28;;;;;;;7.00;3.37;;;;;;;6.10;100.00;95452.69;5045389;28;20089;-76
2021/12/24 01:25:48;;;;;;;9.67;3.93;;;;;;;6.22;100.00;95458.47;5042766;28;20502;-76
2021/12/24 01:44:29;;;;;;;7.60;3.10;;;;;;;5.97;100.00;95439.19;5045665;28;20046;-75
2021/12/24 01:47:04;;;;;;;10.07;3.30;;;;;;;5.97;100.00;95439.19;5055950;28;20036;-74
2021/12/24 01:49:31;;;;;;;8.17;3.50;;;;;;;6.01;100.00;95440.53;5035481;28;20025;-75
2021/12/24 01:51:57;;;;;;;7.70;3.33;;;;;;;5.96;100.00;95431.50;5034341;28;20120;-75
2021/12/24 01:54:26;;;;;;;7.10;3.30;;;;;;;5.97;100.00;95433.97;5027829;28;20116;-75
2021/12/24 01:56:52;;;;;;;6.00;2.90;;;;;;;6.03;100.00;95428.13;5030404;28;20033;-75
2021/12/24 01:59:18;;;;;;;5.10;2.67;;;;;;;6.12;100.00;95426.41;5039367;28;20055;-75
2021/12/24 02:01:45;;;;;;;6.13;2.97;;;;;;;6.09;100.00;95413.66;5027730;28;20092;-75
2021/12/24 02:04:14;;;;;;;10.07;3.37;;;;;;;6.13;100.00;95412.38;5045658;28;20109;-76
2021/12/24 02:06:41;;;;;;;8.03;2.73;;;;;;;6.04;100.00;95410.69;5031559;28;20021;-76
2021/12/24 02:09:07;;;;;;;7.37;3.00;;;;;;;6.11;100.00;95409.13;5045368;28;20094;-76
2021/12/24 02:11:38;;;;;;;5.13;2.50;;;;;;;6.30;100.00;95408.91;5046784;28;20037;-76
2021/12/24 02:14:11;;;;;;;5.63;2.50;;;;;;;6.27;100.00;95404.03;5046366;28;20025;-76
2021/12/24 02:30:08;;;;;;;5.97;2.70;;;;;;;6.36;100.00;95371.75;5053871;28;20025;-76
2021/12/24 02:32:34;;;;;;;6.73;2.83;;;;;;;6.39;100.00;95381.06;5043757;28;20030;-76
2021/12/24 02:35:01;;;;;;;4.20;2.40;;;;;;;6.38;100.00;95375.03;5041174;28;20063;-76
2021/12/24 02:37:27;;;;;;;4.33;2.17;;;;;;;6.43;100.00;95371.94;5047852;28;20130;-76
2021/12/24 02:39:54;;;;;;;6.00;2.80;;;;;;;6.47;100.00;95382.91;5045664;28;20075;-76
2021/12/24 02:42:22;;;;;;;5.97;2.40;;;;;;;6.40;100.00;95376.66;5046944;28;20418;-76
2021/12/24 02:44:49;;;;;;;5.57;2.33;;;;;;;6.40;100.00;95381.88;5028578;28;20033;-76
2021/12/24 02:47:43;;;;;;;5.70;2.63;;;;;;;6.40;100.00;95374.03;5030678;28;21591;-76
2021/12/24 02:55:15;;;;;;;5.13;2.17;;;;;;;6.41;100.00;95365.25;5046340;28;20048;-77
2021/12/24 02:57:44;;;;;;;4.77;2.20;;;;;;;6.42;100.00;95353.84;5039387;28;20033;-76
2021/12/24 03:00:16;;;;;;;7.77;2.40;;;;;;;6.34;100.00;95359.84;5049938;28;20039;-77
2021/12/24 03:02:46;;;;;;;8.07;1.90;;;;;;;6.38;100.00;95350.72;5024881;28;20128;-77
2021/12/24 03:05:15;;;;;;;4.17;1.83;;;;;;;6.30;100.00;95351.47;5047813;28;20478;-76
2021/12/24 03:07:42;;;;;;;5.80;2.40;;;;;;;6.28;100.00;95363.06;5029777;28;20494;-77
2021/12/24 03:10:13;;;;;;;5.20;2.30;;;;;;;6.26;100.00;95355.38;5044508;28;20118;-75
2021/12/24 03:12:40;;;;;;;4.00;1.93;;;;;;;6.23;100.00;95349.63;5030649;28;20143;-76
2021/12/24 03:15:07;;;;;;;4.57;2.30;;;;;;;6.27;100.00;95349.19;5028558;28;20498;-77
2021/12/24 03:17:33;;;;;;;6.20;2.13;;;;;;;6.36;100.00;95347.44;5040121;28;20037;-76
2021/12/24 03:20:07;;;;;;;7.43;2.83;;;;;;;6.40;100.00;95347.94;5029417;28;20033;-76
2021/12/24 03:25:17;;;;;;;4.87;1.90;;;;;;;6.55;100.00;95322.88;5046919;28;20121;-77
2021/12/24 03:27:44;;;;;;;5.80;2.23;;;;;;;6.69;100.00;95324.06;5045301;28;20049;-76
2021/12/24 03:30:11;;;;;;;5.10;2.50;;;;;;;6.69;100.00;95319.66;5023665;28;20021;-76
2021/12/24 03:32:37;;;;;;;4.73;1.93;;;;;;;6.74;100.00;95306.13;5046331;28;20025;-76
2021/12/24 03:35:04;;;;;;;3.77;1.70;;;;;;;6.75;100.00;95313.81;5046532;28;20040;-76
2021/12/24 03:37:30;;;;;;;5.60;2.00;;;;;;;6.71;100.00;95325.56;5027404;28;20029;-77
2021/12/24 03:39:57;;;;;;;4.37;1.83;;;;;;;6.85;100.00;95321.53;5039683;28;20027;-76
2021/12/24 03:42:24;;;;;;;4.43;1.97;;;;;;;6.76;100.00;95325.88;5036942;28;20033;-76
2021/12/24 03:45:08;;;;;;;5.87;2.27;;;;;;;6.72;100.00;95323.75;5028303;28;20456;-76
2021/12/24 03:47:38;;;;;;;6.30;2.03;;;;;;;6.71;100.00;95325.56;5044369;28;20036;-76
2021/12/24 03:50:10;;;;;;;8.07;3.13;;;;;;;6.64;100.00;95327.16;5045065;28;20045;-76
2021/12/24 03:53:02;;;;;;;5.07;1.80;;;;;;;6.63;100.00;95325.50;5038215;28;20148;-77
2021/12/24 03:55:25;;;;;;;4.67;2.10;;;;;;;6.45;100.00;95325.59;5041707;28;20116;-76
2021/12/24 03:57:51;;;;;;;4.93;2.20;;;;;;;6.45;100.00;95320.38;5031809;28;20349;-77
2021/12/24 04:00:36;;;;;;;4.57;2.20;;;;;;;6.49;100.00;95326.94;5048519;28;20066;-76
2021/12/24 04:03:22;;;;;;;4.57;1.83;;;;;;;6.51;100.00;95324.19;5039937;28;20037;-76
2021/12/24 04:05:48;;;;;;;5.77;1.93;;;;;;;6.56;100.00;95325.31;5046093;28;20060;-76
2021/12/24 04:08:32;;;;;;;5.77;1.87;;;;;;;6.64;100.00;95319.34;5054965;28;20693;-77
2021/12/24 04:11:18;;;;;;;3.23;1.50;;;;;;;6.62;100.00;95321.28;5040820;28;20033;-76
2021/12/24 04:13:45;;;;;;;4.90;1.67;;;;;;;6.65;100.00;95317.53;5026632;28;20095;-76
2021/12/24 04:16:11;;;;;;;4.80;2.40;;;;;;;6.63;100.00;95312.44;5042285;28;20118;-77
2021/12/24 04:24:51;;;;;;;3.20;1.50;;;;;;;6.56;100.00;95309.66;5046519;28;20033;-76
2021/12/24 04:27:18;;;;;;;5.10;2.03;;;;;;;6.57;100.00;95305.25;5027761;28;20505;-77
2021/12/24 04:29:44;;;;;;;4.83;2.43;;;;;;;6.51;100.00;95308.50;5050134;28;20598;-77
2021/12/24 04:32:20;;;;;;;4.37;1.77;;;;;;;6.41;100.00;95316.44;5026335;28;20479;-77
2021/12/24 04:35:14;;;;;;;4.30;1.73;;;;;;;6.40;100.00;95311.38;5042034;28;20032;-76
2021/12/24 04:51:24;;;;;;;6.27;1.93;;;;;;;6.35;100.00;95306.63;5043358;28;20045;-76
2021/12/24 05:05:09;;;;;;;6.33;3.70;;;;;;;6.45;100.00;95294.25;5040878;28;20028;-76
2021/12/24 05:10:10;;;;;;;5.77;2.40;;;;;;;6.44;100.00;95289.19;5041142;28;20029;-76
2021/12/24 05:12:36;;;;;;;2.87;1.70;;;;;;;6.48;100.00;95288.72;5048871;28;20114;-77
2021/12/24 05:15:08;;;;;;;5.33;2.40;;;;;;;6.59;100.00;95298.88;5039906;28;20024;-76
2021/12/24 05:18:15;;;;;;;4.83;2.13;;;;;;;6.66;100.00;95288.63;5056551;28;20040;-76
2021/12/24 05:23:44;;;;;;;5.00;1.93;;;;;;;6.63;100.00;95293.34;5048408;28;20083;-77
2021/12/24 05:26:10;;;;;;;4.23;1.90;;;;;;;6.63;100.00;95295.97;5022632;28;20022;-76
2021/12/24 05:28:38;;;;;;;5.63;2.23;;;;;;;6.61;100.00;95283.06;5029404;28;20047;-77
2021/12/24 05:31:04;;;;;;;6.20;2.00;;;;;;;6.56;100.00;95277.50;5036138;28;20472;-76
2021/12/24 05:33:31;;;;;;;4.40;1.80;;;;;;;6.66;100.00;95275.56;5027631;28;20029;-76
2021/12/24 05:35:57;;;;;;;4.23;2.13;;;;;;;6.56;100.00;95280.09;5048705;28;20115;-76
2021/12/24 05:38:23;;;;;;;5.90;2.87;;;;;;;6.48;100.00;95282.69;5032099;28;20490;-76
2021/12/24 05:40:50;;;;;;;4.73;1.97;;;;;;;6.49;100.00;95286.94;5030830;28;20033;-77
2021/12/24 05:43:15;;;;;;;6.10;2.00;;;;;;;6.50;100.00;95285.94;5028442;28;20529;-76
2021/12/24 05:45:42;;;;;;;5.37;2.10;;;;;;;6.37;100.00;95283.78;5024557;28;20037;-76
2021/12/24 05:48:37;;;;;;;5.27;1.90;;;;;;;6.36;100.00;95282.13;5034391;28;20449;-77
2021/12/24 05:51:09;;;;;;;4.80;1.97;;;;;;;6.33;100.00;95290.28;5047951;28;20032;-76
2021/12/24 05:53:58;;;;;;;3.80;1.90;;;;;;;6.44;100.00;95289.19;5043189;28;20041;-76
2021/12/24 05:56:28;;;;;;;4.70;1.77;;;;;;;6.43;100.00;95290.16;5048589;28;20042;-76
2021/12/24 05:59:05;;;;;;;6.10;2.33;;;;;;;6.50;100.00;95288.56;5044643;28;20395;-76
2021/12/24 06:01:32;;;;;;;5.80;2.10;;;;;;;6.49;100.00;95292.97;5043619;28;20091;-76
2021/12/24 06:03:58;;;;;;;4.20;1.70;;;;;;;6.44;100.00;95295.25;5047063;28;20044;-77
2021/12/24 06:06:24;;;;;;;4.40;2.00;;;;;;;6.54;100.00;95287.28;5044002;28;20036;-76
2021/12/24 06:08:49;;;;;;;4.50;2.47;;;;;;;6.50;100.00;95291.19;5048432;28;20389;-76
2021/12/24 06:11:16;;;;;;;6.27;2.10;;;;;;;6.44;100.00;95286.56;5047807;28;20529;-76
2021/12/24 06:13:42;;;;;;;5.67;2.07;;;;;;;6.52;100.00;95284.81;5049051;28;20125;-76
2021/12/24 06:16:09;;;;;;;5.27;1.90;;;;;;;6.48;100.00;95288.72;5033408;28;20428;-77
2021/12/24 06:18:37;;;;;;;5.13;2.20;;;;;;;6.47;100.00;95288.88;5032775;28;20049;-76
2021/12/24 06:21:04;;;;;;;5.17;2.30;;;;;;;6.42;100.00;95286.75;5030512;28;20036;-76
2021/12/24 06:23:31;;;;;;;3.80;1.63;;;;;;;6.37;100.00;95305.50;5047529;28;20479;-77
2021/12/24 06:25:58;;;;;;;4.57;2.07;;;;;;;6.38;100.00;95304.53;5043960;28;20025;-76
2021/12/24 06:28:24;;;;;;;5.60;2.33;;;;;;;6.35;100.00;95306.63;5045090;28;20045;-76
2021/12/24 06:30:51;;;;;;;4.17;1.90;;;;;;;6.36;100.00;95309.06;5031831;28;20025;-76
2021/12/24 06:33:17;;;;;;;5.50;2.10;;;;;;;6.37;100.00;95320.31;5044823;28;20116;-76
2021/12/24 06:35:44;;;;;;;5.67;2.03;;;;;;;6.38;100.00;95320.19;5045794;28;20111;-76
2021/12/24 06:38:10;;;;;;;4.60;2.00;;;;;;;6.32;100.00;95320.81;5048757;28;20052;-77
2021/12/24 06:40:37;;;;;;;5.03;2.50;;;;;;;6.34;100.00;95312.84;5041033;28;20033;-77
2021/12/24 06:43:04;;;;;;;7.53;2.40;;;;;;;6.29;100.00;95305.44;5028967;28;20041;-76
2021/12/24 06:45:30;;;;;;;5.80;2.33;;;;;;;6.33;100.00;95312.00;5049663;28;20029;-77
2021/12/24 06:47:59;;;;;;;5.67;2.40;;;;;;;6.28;100.00;95305.63;5046652;28;20032;-76
2021/12/24 06:50:26;;;;;;;6.77;2.97;;;;;;;6.33;100.00;95304.16;5046656;28;20029;-76
2021/12/24 06:52:53;;;;;;;7.10;2.37;;;;;;;6.27;100.00;95301.34;5043051;28;20037;-76
2021/12/24 06:55:20;;;;;;;6.03;2.80;;;;;;;6.26;100.00;95303.16;5024812;28;20021;-76
2021/12/24 06:57:48;;;;;;;5.73;2.10;;;;;;;6.18;100.00;95300.50;5029769;28;20508;-76
2021/12/24 07:00:18;;;;;;;4.00;2.03;;;;;;;6.14;100.00;95299.19;5030249;28;20082;-76
2021/12/24 07:02:44;;;;;;;7.63;2.33;;;;;;;6.12;100.00;95295.91;5022389;28;20053;-75
2021/12/24 07:05:11;;;;;;;5.53;2.40;;;;;;;6.12;100.00;95290.69;5045510;28;20056;-76
2021/12/24 07:07:36;;;;;;;5.83;2.00;;;;;;;6.14;100.00;95296.56;5044688;28;20029;-76
2021/12/24 07:10:04;;;;;;;4.37;2.23;;;;;;;6.01;100.00;95304.81;5028391;28;20052;-76
2021/12/24 07:12:32;;;;;;;7.47;2.30;;;;;;;6.05;100.00;95295.69;5046903;28;20044;-76
2021/12/24 07:14:57;;;;;;;4.63;2.37;;;;;;;6.05;100.00;95305.31;5053322;28;20027;-76
2021/12/24 07:17:23;;;;;;;6.47;2.40;;;;;;;5.95;100.00;95305.41;5031096;28;20437;-76
2021/12/24 07:19:49;;;;;;;6.40;2.57;;;;;;;5.91;100.00;95299.66;5026249;28;20106;-76
2021/12/24 07:22:17;;;;;;;5.73;2.30;;;;;;;5.93;100.00;95301.31;5021129;28;20029;-77
2021/12/24 07:24:43;;;;;;;4.13;1.87;;;;;;;5.88;100.00;95305.19;5041875;28;20029;-77
2021/12/24 07:27:09;;;;;;;5.10;2.60;;;;;;;5.87;100.00;95307.97;5045712;28;20171;-77
2021/12/24 07:29:36;;;;;;;4.23;2.17;;;;;;;5.91;100.00;95299.66;5042626;28;20029;-77
2021/12/24 07:32:03;;;;;;;6.13;2.63;;;;;;;5.95;100.00;95300.19;5045841;28;20028;-77
2021/12/24 07:34:29;;;;;;;6.43;2.87;;;;;;;5.96;100.00;95301.00;5035654;28;20624;-76
2021/12/24 07:36:55;;;;;;;4.90;2.80;;;;;;;6.00;100.00;95297.97;5040029;28;20033;-77
2021/12/24 07:39:21;;;;;;;9.27;4.13;;;;;;;6.01;100.00;95299.59;5037068;28;20042;-77
2021/12/24 07:41:48;;;;;;;7.13;3.00;;;;;;;6.04;100.00;95301.09;5021084;28;20288;-76
2021/12/24 07:44:18;;;;;;;5.80;2.63;;;;;;;6.13;100.00;95300.94;5022960;28;20033;-76
2021/12/24 07:46:54;;;;;;;4.97;2.67;;;;;;;6.15;100.00;95306.03;5026741;28;20025;-81
2021/12/24 07:54:23;;;;;;;7.00;2.73;;;;;;;6.21;100.00;95299.38;5046193;28;20037;-77
2021/12/24 07:56:49;;;;;;;5.93;2.57;;;;;;;6.21;100.00;95302.81;5056197;28;20548;-80
2021/12/24 07:59:15;;;;;;;5.80;2.73;;;;;;;6.24;100.00;95305.09;5058844;28;20051;-77
2021/12/24 08:01:44;;;;;;;6.47;3.03;;;;;;;6.22;100.00;95311.44;5053692;28;20028;-77
2021/12/24 08:04:11;;;;;;;6.10;2.43;;;;;;;6.23;100.00;95308.66;5052209;28;20052;-78
2021/12/24 08:06:37;;;;;;;6.70;3.17;;;;;;;6.35;100.00;95302.22;5028305;28;20067;-78
2021/12/24 08:09:06;;;;;;;4.90;2.47;;;;;;;6.34;100.00;95300.59;5038691;28;20085;-76
2021/12/24 08:11:35;;;;;;;6.50;3.03;;;;;;;6.35;100.00;95291.78;5049410;28;20063;-77
2021/12/24 08:14:01;;;;;;;6.53;2.50;;;;;;;6.36;100.00;95309.06;5037186;28;20029;-77
2021/12/24 08:16:29;;;;;;;5.87;2.47;;;;;;;6.38;100.00;95312.34;5049038;28;20033;-76
2021/12/24 08:18:55;;;;;;;7.40;2.50;;;;;;;6.34;100.00;95303.19;5050560;28;20063;-78
2021/12/24 08:21:21;;;;;;;5.87;2.83;;;;;;;6.35;100.00;95302.22;5055725;28;20079;-78
2021/12/24 08:23:47;;;;;;;10.80;3.20;;;;;;;6.35;100.00;95301.41;5035564;28;20041;-78
2021/12/24 08:26:16;;;;;;;6.97;3.10;;;;;;;6.30;100.00;95293.22;5041079;28;20033;-78
2021/12/24 08:28:42;;;;;;;6.47;3.53;;;;;;;6.33;100.00;95287.69;5042134;28;20029;-77
2021/12/24 08:31:09;;;;;;;8.17;3.57;;;;;;;6.26;100.00;95292.69;5047294;28;20033;-77
2021/12/24 08:33:35;;;;;;;7.33;3.50;;;;;;;6.26;100.00;95291.88;5036265;28;20397;-77
2021/12/24 08:36:06;;;;;;;7.27;3.27;;;;;;;6.25;100.00;95288.47;5053082;28;20052;-77
2021/12/24 08:38:32;;;;;;;6.77;2.77;;;;;;;6.25;100.00;95285.84;5035058;28;20026;-79
2021/12/24 08:40:59;;;;;;;6.57;3.00;;;;;;;6.29;100.00;95281.94;5034607;28;20475;-77
2021/12/24 08:43:25;;;;;;;8.60;3.63;;;;;;;6.27;100.00;95277.84;5037009;28;20060;-75
2021/12/24 08:45:50;;;;;;;5.73;2.83;;;;;;;6.30;100.00;95286.19;5030585;28;20137;-78
2021/12/24 08:48:16;;;;;;;7.03;3.63;;;;;;;6.28;100.00;95295.16;5035480;28;20505;-77
2021/12/24 08:50:42;;;;;;;6.97;3.40;;;;;;;6.30;100.00;95295.81;5051643;28;20605;-77
2021/12/24 08:53:07;;;;;;;7.33;3.20;;;;;;;6.25;100.00;95290.25;5053150;28;20039;-77
2021/12/24 08:55:36;;;;;;;7.67;3.73;;;;;;;6.26;100.00;95286.66;5039702;28;20022;-76
2021/12/24 08:58:03;;;;;;;5.60;2.93;;;;;;;6.24;100.00;95292.06;5045424;28;20037;-77
2021/12/24 09:00:30;;;;;;;5.70;3.27;;;;;;;6.23;100.00;95292.19;5054675;28;20060;-77
2021/12/24 09:02:56;;;;;;;5.80;3.17;;;;;;;6.22;100.00;95296.59;5050357;28;20151;-77
2021/12/24 09:05:23;;;;;;;7.33;3.27;;;;;;;6.24;100.00;95309.53;5049696;28;20366;-77
2021/12/24 09:07:49;;;;;;;6.30;3.30;;;;;;;6.22;100.00;95307.03;5031601;28;20098;-77
2021/12/24 09:10:15;;;;;;;6.43;3.20;;;;;;;6.33;100.00;95298.94;5026080;28;20030;-76
2021/12/24 09:12:43;;;;;;;10.67;4.17;;;;;;;6.32;100.00;95294.69;5049001;28;20029;-77
2021/12/24 09:15:11;;;;;;;5.70;3.00;;;;;;;6.32;100.00;95293.88;5045477;28;20029;-78
2021/12/24 09:17:43;;;;;;;6.33;3.17;;;;;;;6.26;100.00;95286.66;5033301;28;20037;-77
2021/12/24 09:20:12;;;;;;;6.28;2.90;;;;;;;6.35;100.00;95288.34;5034921;28;20554;-78
2021/12/24 09:22:40;;;;;;;6.37;3.63;;;;;;;6.36;100.00;95288.19;5049245;28;20040;-77
2021/12/24 09:25:06;;;;;;;7.30;2.87;;;;;;;6.41;100.00;95295.56;5053187;28;20047;-77
2021/12/24 09:27:32;;;;;;;5.93;2.57;;;;;;;6.41;100.00;95285.13;5030173;28;20029;-76
2021/12/24 09:29:58;;;;;;;7.90;3.50;;;;;;;6.41;100.00;95295.56;5033236;28;20031;-76
2021/12/24 09:32:25;;;;;;;8.30;3.50;;;;;;;6.43;100.00;95290.16;5027921;28;20068;-76
2021/12/24 09:34:51;;;;;;;8.63;4.63;;;;;;;6.40;100.00;95303.53;5049226;28;20064;-76
2021/12/24 09:37:17;;;;;;;8.63;4.10;;;;;;;6.37;100.00;95289.84;5032413;28;20033;-78
2021/12/24 09:39:43;;;;;;;8.57;4.00;;;;;;;6.42;100.00;95285.94;5046627;28;20654;-77
2021/12/24 09:42:09;;;;;;;14.43;8.13;;;;;;;6.42;100.00;95304.22;5028719;28;20022;-76
2021/12/24 09:44:35;;;;;;;10.97;4.87;;;;;;;6.35;100.00;95293.56;5032484;28;20127;-78
2021/12/24 09:47:01;;;;;;;10.53;4.90;;;;;;;6.36;100.00;95303.03;5054402;28;20112;-76
2021/12/24 09:49:27;;;;;;;9.90;4.63;;;;;;;6.40;100.00;95287.88;5047759;28;20029;-76
2021/12/24 09:51:53;;;;;;;8.77;4.30;;;;;;;6.37;100.00;95284.63;5051036;28;20314;-76
2021/12/24 09:54:24;;;;;;;8.33;4.00;;;;;;;6.38;100.00;95282.81;5042265;28;20078;-77
2021/12/24 09:56:52;;;;;;;11.00;4.87;;;;;;;6.31;100.00;95279.19;5040821;28;20032;-77
2021/12/24 09:59:18;;;;;;;8.60;4.70;;;;;;;6.32;100.00;95279.03;5027573;28;20021;-75
2021/12/24 10:02:07;;;;;;;7.50;4.17;;;;;;;6.29;100.00;95284.56;5047832;28;20120;-75
2021/12/24 10:04:35;;;;;;;10.83;4.80;;;;;;;6.33;100.00;95285.88;5045043;28;20033;-75
2021/12/24 10:07:10;;;;;;;8.17;4.73;;;;;;;6.36;100.00;95282.94;5042601;28;20120;-75
2021/12/24 10:09:42;;;;;;;7.83;3.80;;;;;;;6.35;100.00;95276.09;5032201;28;20397;-75
2021/12/24 10:12:09;;;;;;;7.20;2.93;;;;;;;6.31;100.00;95279.19;5047408;28;20029;-76
2021/12/24 10:14:39;;;;;;;7.57;3.77;;;;;;;6.30;100.00;95286.19;5048286;28;20024;-76
2021/12/24 10:17:22;;;;;;;8.03;3.17;;;;;;;6.35;100.00;95286.56;5052512;28;20591;-75
2021/12/24 10:19:51;;;;;;;6.20;3.67;;;;;;;6.32;100.00;95281.63;5046900;28;20126;-76
2021/12/24 10:22:19;;;;;;;6.87;3.13;;;;;;;6.30;100.00;95278.34;5044878;28;20123;-76
2021/12/24 10:25:08;;;;;;;7.80;3.37;;;;;;;6.26;100.00;95271.81;5055729;28;20033;-76
2021/12/24 10:27:34;;;;;;;7.67;3.40;;;;;;;6.22;100.00;95265.28;5034778;28;20048;-75
2021/12/24 10:30:17;;;;;;;4.80;2.93;;;;;;;6.24;100.00;95267.75;5039629;28;20080;-75
2021/12/24 10:32:44;;;;;;;8.17;3.80;;;;;;;6.19;100.00;95260.34;5052636;28;20486;-75
2021/12/24 10:35:28;;;;;;;7.53;4.00;;;;;;;6.23;100.00;95256.47;5047388;28;20032;-76
2021/12/24 10:38:12;;;;;;;7.82;3.47;;;;;;;6.22;100.00;95254.84;5050007;28;20111;-76
2021/12/24 10:40:55;;;;;;;10.60;4.53;;;;;;;6.21;100.00;95258.44;5038318;28;20671;-74
2021/12/24 10:43:24;;;;;;;9.37;4.57;;;;;;;6.23;100.00;95268.69;5044614;28;20385;-74
2021/12/24 10:46:17;;;;;;;11.07;6.03;;;;;;;6.23;100.00;95261.69;5047217;28;20541;-75
2021/12/24 10:49:27;;;;;;;8.77;4.18;;;;;;;6.17;100.00;95254.50;5030333;28;20033;-75
2021/12/24 10:52:01;;;;;;;7.17;3.60;;;;;;;6.25;100.00;95254.53;5027047;28;20045;-75
2021/12/24 10:54:27;;;;;;;;;;;;;;;6.25;100.00;95245.88;5036471;28;20394;-75
2021/12/24 10:57:14;;;;;;;8.60;4.43;;;;;;;6.30;100.00;95251.44;5041949;28;19916;-75
2021/12/24 10:59:43;;;;;;;7.33;3.33;;;;;;;6.28;100.00;95250.78;5028809;28;20451;-75
2021/12/24 11:02:10;;;;;;;9.17;5.17;;;;;;;6.27;100.00;95244.75;5040617;28;20061;-75
2021/12/24 11:04:36;;;;;;;9.10;4.80;;;;;;;6.25;100.00;95248.50;5047126;28;20163;-75
2021/12/24 11:07:02;;;;;;;10.43;4.30;;;;;;;6.23;100.00;95248.63;5041562;28;20025;-76
2021/12/24 11:09:28;;;;;;;7.33;3.90;;;;;;;6.23;100.00;95243.41;5024333;28;20036;-77
2021/12/24 11:11:58;;;;;;;9.13;4.27;;;;;;;6.36;100.00;95235.13;5049560;28;20028;-74
2021/12/24 11:14:23;;;;;;;6.20;3.53;;;;;;;6.35;100.00;95234.31;5035943;28;20106;-77
2021/12/24 11:16:49;;;;;;;6.47;3.87;;;;;;;6.21;100.00;95227.09;5033148;28;20053;-76
2021/12/24 11:19:15;;;;;;;8.27;4.73;;;;;;;6.27;100.00;95228.25;5028680;28;20025;-76
2021/12/24 11:21:41;;;;;;;10.57;6.13;;;;;;;6.21;100.00;95226.28;5050621;28;20666;-76
2021/12/24 11:24:06;;;;;;;6.97;3.80;;;;;;;6.19;100.00;95223.00;5050087;28;20027;-76
2021/12/24 11:26:40;;;;;;;6.20;3.13;;;;;;;6.19;100.00;95226.44;5056991;28;20043;-75
2021/12/24 11:29:06;;;;;;;7.57;4.57;;;;;;;6.12;100.00;95228.84;5045750;28;20033;-76
2021/12/24 11:31:33;;;;;;;6.03;3.27;;;;;;;6.08;100.00;95227.53;5045888;28;20064;-75
2021/12/24 11:33:59;;;;;;;7.67;3.73;;;;;;;6.09;100.00;95223.94;5047042;28;20055;-76
2021/12/24 11:36:28;;;;;;;6.60;3.40;;;;;;;6.09;100.00;95212.69;5047433;28;20105;-76
2021/12/24 11:38:57;;;;;;;7.07;3.37;;;;;;;6.05;100.00;95222.63;5047055;28;20033;-75
2021/12/24 11:41:26;;;;;;;8.27;3.90;;;;;;;5.98;100.00;95226.00;5031460;28;20032;-76
2021/12/24 11:43:54;;;;;;;9.53;4.63;;;;;;;5.98;100.00;95231.22;5039217;28;20025;-75
2021/12/24 11:46:22;;;;;;;7.37;3.77;;;;;;;5.98;100.00;95229.44;5030449;28;20111;-75
2021/12/24 11:48:51;;;;;;;7.83;3.70;;;;;;;5.95;100.00;95226.31;5030193;28;20032;-76
2021/12/24 11:51:20;;;;;;;6.03;3.20;;;;;;;5.95;100.00;95223.72;5024107;28;20056;-76
2021/12/24 11:53:47;;;;;;;6.10;3.20;;;;;;;5.90;100.00;95227.56;5047526;28;20033;-77
2021/12/24 11:56:17;;;;;;;6.53;3.87;;;;;;;5.90;100.00;95217.13;5046029;28;20047;-77
2021/12/24 11:58:49;;;;;;;6.57;3.57;;;;;;;5.91;100.00;95215.34;5048207;28;20036;-77
2021/12/24 12:01:17;;;;;;;10.97;6.47;;;;;;;5.86;100.00;95221.00;5032373;28;20025;-76
2021/12/24 12:03:49;;;;;;;10.70;5.30;;;;;;;5.93;100.00;95212.59;5054648;28;20033;-77
2021/12/24 12:06:17;;;;;;;6.90;4.07;;;;;;;5.95;100.00;95208.88;5024667;28;20505;-78
2021/12/24 12:08:48;;;;;;;10.20;4.30;;;;;;;5.93;100.00;95207.38;5049389;28;20075;-78
2021/12/24 12:11:14;;;;;;;8.53;3.97;;;;;;;5.90;100.00;95203.25;5049190;28;20393;-78
2021/12/24 12:13:53;;;;;;;8.63;5.07;;;;;;;5.91;100.00;95189.25;5033025;28;20030;-77
2021/12/24 12:16:25;;;;;;;10.37;5.60;;;;;;;5.93;100.00;95189.13;5049191;28;20029;-77
2021/12/24 12:19:21;;;;;;;7.37;3.97;;;;;;;5.87;100.00;95193.97;5048543;28;20067;-77
2021/12/24 12:24:59;;;;;;;9.17;4.30;;;;;;;5.98;100.00;95176.44;5041011;28;20083;-78
2021/12/24 12:27:36;;;;;;;8.33;5.03;;;;;;;5.97;100.00;95165.19;5024228;28;20025;-75
2021/12/24 12:30:25;;;;;;;7.17;4.43;;;;;;;6.03;100.00;95171.53;5055968;28;20089;-78
2021/12/24 12:33:04;;;;;;;9.60;5.50;;;;;;;6.05;100.00;95167.00;5027956;28;20030;-79
2021/12/24 12:35:47;;;;;;;10.67;5.63;;;;;;;6.03;100.00;95164.53;5059955;28;20116;-80
2021/12/24 12:38:30;;;;;;;8.80;5.13;;;;;;;6.11;100.00;95168.97;5057945;28;20490;-78
2021/12/24 12:41:22;;;;;;;10.70;5.17;;;;;;;6.16;100.00;95158.88;5036140;28;20033;-80
2021/12/24 12:43:53;;;;;;;7.70;4.57;;;;;;;6.16;100.00;95166.69;5040924;28;20550;-79
2021/12/24 12:46:32;;;;;;;8.77;4.30;;;;;;;6.16;100.00;95145.81;5050438;28;20075;-80
2021/12/24 12:49:00;;;;;;;8.50;3.83;;;;;;;6.14;100.00;95156.44;5035633;28;20040;-79
2021/12/24 12:51:50;;;;;;;6.37;3.17;;;;;;;6.13;100.00;95165.22;5039593;28;20059;-77
2021/12/24 12:54:43;;;;;;;6.73;3.87;;;;;;;6.11;100.00;95158.53;5049004;28;20041;-78
2021/12/24 12:57:27;;;;;;;6.73;3.80;;;;;;;6.11;100.00;95163.75;5036470;28;20094;-80
2021/12/24 13:00:12;;;;;;;7.80;3.10;;;;;;;6.12;100.00;95155.75;5041916;28;20293;-77
2021/12/24 13:02:58;;;;;;;5.60;2.90;;;;;;;6.17;100.00;95155.31;5053196;28;20036;-77
2021/12/24 13:05:26;;;;;;;5.20;3.20;;;;;;;6.14;100.00;95153.00;5050058;28;20048;-77
2021/12/24 13:07:53;;;;;;;7.47;3.73;;;;;;;6.12;100.00;95147.13;5051250;28;20021;-79
2021/12/24 13:10:19;;;;;;;7.57;3.87;;;;;;;6.16;100.00;95148.44;5036562;28;20029;-78
2021/12/24 13:12:45;;;;;;;4.67;2.60;;;;;;;6.07;100.00;95158.03;5054136;28;20028;-80
2021/12/24 13:15:17;;;;;;;6.40;3.80;;;;;;;6.08;100.00;95145.81;5049702;28;20056;-77
2021/12/24 13:17:45;;;;;;;8.70;5.57;;;;;;;6.06;100.00;95151.16;5053854;28;20033;-78
2021/12/24 13:20:20;;;;;;;30.63;23.17;;;;;;;6.09;100.00;95131.75;5049825;28;20115;-78
2021/12/24 13:22:46;;;;;;;12.03;7.97;;;;;;;6.03;100.00;95135.00;5034926;28;20044;-76
2021/12/24 13:25:14;;;;;;;9.57;6.27;;;;;;;6.05;100.00;95131.25;5035357;28;20033;-78
2021/12/24 13:27:48;;;;;;;12.33;7.17;;;;;;;6.07;100.00;95133.69;5052345;28;20403;-78